Time;durP1;ratioP1;P1;durP2;ratioP2;P2;SDS_P1;SDS_P2;PMS_P1;PMS_P2;Temp;Humidity;BMP_temperature;BMP_pressure;BME280_temperature;BME280_humidity;BME280_pressure;Samples;Min_cycle;Max_cycle;Signal;HPM_P1;HPM_P2
2021/03/14 00:00:42;;;;;;;17.60;2.90;;;9.00;78.30;;;;;;5013093;28;20038;-81
2021/03/14 00:03:09;;;;;;;21.05;3.83;;;9.10;78.20;;;;;;5011870;28;20077;-80
2021/03/14 00:05:37;;;;;;;40.63;16.48;;;9.10;79.50;;;;;;5012588;28;20518;-80
2021/03/14 00:08:04;;;;;;;51.08;23.60;;;9.10;78.80;;;;;;5012558;28;20042;-80
2021/03/14 00:10:30;;;;;;;24.55;5.68;;;9.10;79.40;;;;;;4996838;28;20501;-80
2021/03/14 00:12:55;;;;;;;43.75;14.70;;;9.10;79.00;;;;;;4995739;28;20034;-80
2021/03/14 00:15:25;;;;;;;61.45;25.15;;;9.10;79.50;;;;;;4996055;28;20038;-80
2021/03/14 00:17:51;;;;;;;30.00;5.47;;;9.00;79.90;;;;;;4996344;28;20085;-80
2021/03/14 00:20:17;;;;;;;33.25;8.20;;;9.00;80.00;;;;;;4995937;28;20100;-80
2021/03/14 00:22:44;;;;;;;16.35;2.78;;;9.00;80.20;;;;;;5012404;28;20038;-80
2021/03/14 00:25:11;;;;;;;104.75;56.67;;;9.00;80.00;;;;;;5012304;28;20049;-80
2021/03/14 00:27:37;;;;;;;49.67;15.32;;;9.00;79.70;;;;;;4995763;28;20034;-80
2021/03/14 00:30:06;;;;;;;39.28;10.25;;;9.00;79.00;;;;;;4995685;28;20046;-80
2021/03/14 00:32:33;;;;;;;37.13;10.02;;;9.10;75.70;;;;;;4995926;28;20034;-81
2021/03/14 00:34:59;;;;;;;67.95;33.25;;;9.10;76.20;;;;;;4996565;28;20166;-80
2021/03/14 00:37:25;;;;;;;28.13;5.93;;;9.10;76.10;;;;;;4995342;28;20041;-80
2021/03/14 00:39:51;;;;;;;28.98;6.40;;;9.10;75.70;;;;;;5011534;28;20042;-80
2021/03/14 00:42:25;;;;;;;30.23;6.20;;;9.10;75.40;;;;;;4995271;28;20092;-80
2021/03/14 00:44:51;;;;;;;28.05;6.22;;;9.10;76.20;;;;;;5012377;28;20463;-79
2021/03/14 00:47:17;;;;;;;35.15;9.00;;;9.10;75.50;;;;;;4995423;28;20038;-79
2021/03/14 00:49:44;;;;;;;113.55;57.80;;;9.10;75.50;;;;;;4995295;28;20053;-80
2021/03/14 00:52:10;;;;;;;42.05;15.45;;;9.00;74.70;;;;;;4995945;28;20040;-79
2021/03/14 00:54:36;;;;;;;21.08;2.75;;;9.10;74.80;;;;;;4996675;28;20121;-79
2021/03/14 00:57:02;;;;;;;17.98;3.15;;;9.00;74.60;;;;;;4994932;28;20027;-80
2021/03/14 00:59:27;;;;;;;25.85;3.03;;;9.10;73.20;;;;;;4995138;28;20435;-79
2021/03/14 01:01:53;;;;;;;24.27;5.18;;;9.10;72.50;;;;;;4995234;28;20034;-79
2021/03/14 01:04:19;;;;;;;25.05;7.05;;;9.20;69.70;;;;;;4996334;28;20058;-79
2021/03/14 01:07:07;;;;;;;17.75;2.85;;;9.20;69.20;;;;;;4994217;28;20038;-80
2021/03/14 01:09:47;;;;;;;19.00;3.15;;;9.30;69.20;;;;;;4994618;28;20112;-79
2021/03/14 01:12:13;;;;;;;21.20;3.25;;;9.20;69.40;;;;;;4995452;28;20046;-79
2021/03/14 01:14:39;;;;;;;17.10;3.70;;;9.20;69.60;;;;;;4995511;28;20038;-80
2021/03/14 01:17:05;;;;;;;19.95;3.95;;;9.20;68.80;;;;;;4995823;28;20038;-79
2021/03/14 01:19:31;;;;;;;79.35;31.55;;;9.20;69.20;;;;;;4994647;28;20038;-80
2021/03/14 01:21:57;;;;;;;19.23;3.80;;;9.20;70.20;;;;;;4996219;28;20034;-79
2021/03/14 01:24:43;;;;;;;22.38;3.47;;;9.20;70.70;;;;;;4994656;28;20038;-79
2021/03/14 01:27:15;;;;;;;25.15;5.35;;;9.20;71.30;;;;;;5011014;28;20034;-79
2021/03/14 01:29:41;;;;;;;19.27;4.28;;;9.20;71.40;;;;;;4995027;28;20053;-79
2021/03/14 01:32:09;;;;;;;21.00;2.90;;;9.10;70.80;;;;;;4996176;28;20475;-80
2021/03/14 01:35:19;;;;;;;14.32;2.53;;;9.10;71.10;;;;;;4994556;28;20080;-80
2021/03/14 01:38:39;;;;;;;19.50;3.35;;;9.00;68.40;;;;;;4994512;28;20038;-81
2021/03/14 01:44:06;;;;;;;26.13;2.97;;;9.00;67.00;;;;;;4911978;29;20062;-79
2021/03/14 01:46:33;;;;;;;17.55;3.47;;;8.90;67.90;;;;;;4916071;29;20046;-79
2021/03/14 01:49:00;;;;;;;20.38;4.72;;;8.90;67.30;;;;;;4963547;28;20034;-79
2021/03/14 01:51:25;;;;;;;35.65;7.60;;;8.90;68.50;;;;;;4994155;28;20046;-80
2021/03/14 01:53:51;;;;;;;19.20;3.50;;;8.90;68.50;;;;;;4993936;28;20030;-79
2021/03/14 01:56:18;;;;;;;24.13;4.22;;;8.90;68.00;;;;;;5010635;28;20096;-79
2021/03/14 01:58:47;;;;;;;25.25;7.60;;;8.80;68.00;;;;;;4994123;28;20041;-79
2021/03/14 02:01:13;;;;;;;26.23;3.00;;;8.80;67.40;;;;;;4995693;28;20069;-79
2021/03/14 02:03:39;;;;;;;25.65;5.63;;;8.70;68.00;;;;;;4993382;28;20419;-80
2021/03/14 02:06:05;;;;;;;23.02;3.35;;;8.70;68.70;;;;;;4994086;28;20125;-80
2021/03/14 02:08:31;;;;;;;20.77;3.28;;;8.60;68.70;;;;;;4995220;28;20049;-80
2021/03/14 02:10:57;;;;;;;20.95;4.28;;;8.60;69.00;;;;;;4993956;28;20042;-79
2021/03/14 02:13:34;;;;;;;16.48;3.03;;;8.60;69.70;;;;;;4993917;28;20165;-80
2021/03/14 02:16:04;;;;;;;18.73;2.90;;;8.50;70.40;;;;;;5010245;28;20038;-80
2021/03/14 02:18:37;;;;;;;19.98;3.08;;;8.50;70.80;;;;;;4995073;28;20113;-80
2021/03/14 02:21:03;;;;;;;20.67;3.88;;;8.40;72.40;;;;;;5010274;28;20045;-79
2021/03/14 02:23:44;;;;;;;34.35;5.95;;;8.30;72.80;;;;;;5009852;28;20034;-79
2021/03/14 02:26:20;;;;;;;26.40;3.40;;;8.30;72.60;;;;;;4993548;28;20042;-79
2021/03/14 02:28:48;;;;;;;22.75;3.85;;;8.40;72.50;;;;;;5010100;28;20042;-80
2021/03/14 02:31:18;;;;;;;27.60;6.25;;;8.40;73.10;;;;;;5010129;28;20042;-79
2021/03/14 02:33:46;;;;;;;24.02;3.80;;;8.30;73.60;;;;;;5009860;28;20038;-79
2021/03/14 02:36:13;;;;;;;32.45;4.80;;;8.30;74.60;;;;;;5010937;28;20144;-80
2021/03/14 02:38:44;;;;;;;27.42;4.68;;;8.30;74.60;;;;;;5010397;28;20446;-79
2021/03/14 02:41:11;;;;;;;37.85;9.38;;;8.20;75.70;;;;;;4993502;28;20109;-79
2021/03/14 02:43:39;;;;;;;48.17;10.27;;;8.20;75.50;;;;;;5009764;28;20030;-80
2021/03/14 02:46:05;;;;;;;30.45;4.75;;;8.30;75.60;;;;;;4993732;28;20042;-79
2021/03/14 02:48:32;;;;;;;34.45;5.25;;;8.40;75.30;;;;;;5009819;28;20068;-79
2021/03/14 02:50:59;;;;;;;26.25;4.22;;;8.40;75.90;;;;;;5009969;28;20046;-79
2021/03/14 02:53:26;;;;;;;13.93;2.30;;;8.50;73.40;;;;;;5009985;28;20062;-80
2021/03/14 02:55:55;;;;;;;18.00;2.33;;;8.60;71.10;;;;;;5010119;28;20030;-80
2021/03/14 02:58:23;;;;;;;10.48;1.65;;;8.60;69.30;;;;;;4993783;28;20129;-80
2021/03/14 03:00:51;;;;;;;11.82;1.98;;;8.60;69.20;;;;;;5010018;28;20080;-80
2021/03/14 03:03:21;;;;;;;12.88;1.77;;;8.60;69.00;;;;;;5009176;28;20193;-80
2021/03/14 03:05:48;;;;;;;8.63;1.65;;;8.60;70.00;;;;;;5009994;28;20042;-80
2021/03/14 03:08:18;;;;;;;16.50;2.10;;;8.50;70.60;;;;;;5010422;28;20495;-80
2021/03/14 03:10:47;;;;;;;16.27;2.60;;;8.50;71.30;;;;;;5009790;28;20484;-80
2021/03/14 03:13:15;;;;;;;9.98;1.75;;;8.50;72.30;;;;;;5009642;28;20031;-80
2021/03/14 03:15:41;;;;;;;18.48;3.00;;;8.50;72.30;;;;;;5009789;28;20041;-80
2021/03/14 03:18:09;;;;;;;19.67;2.38;;;8.50;72.40;;;;;;5009547;28;20034;-80
2021/03/14 03:20:36;;;;;;;18.27;2.30;;;8.60;72.90;;;;;;5010535;28;20088;-80
2021/03/14 03:23:02;;;;;;;23.05;3.30;;;8.60;73.20;;;;;;5009406;28;20038;-80
2021/03/14 03:25:28;;;;;;;19.33;3.33;;;8.60;73.90;;;;;;5010148;28;20486;-80
2021/03/14 03:27:54;;;;;;;30.02;3.28;;;8.60;74.00;;;;;;4994531;28;20041;-80
2021/03/14 03:30:22;;;;;;;23.55;3.00;;;8.60;74.70;;;;;;5010848;28;20042;-79
2021/03/14 03:32:48;;;;;;;16.92;2.25;;;8.60;73.90;;;;;;5013072;28;20040;-80
2021/03/14 03:35:16;;;;;;;21.80;2.95;;;8.60;71.60;;;;;;4996943;28;20092;-80
2021/03/14 03:37:44;;;;;;;20.13;3.50;;;8.70;70.10;;;;;;5012785;28;20062;-80
2021/03/14 03:40:12;;;;;;;19.08;2.65;;;8.70;69.90;;;;;;5012972;28;20129;-80
2021/03/14 03:42:53;;;;;;;18.58;2.88;;;8.80;70.60;;;;;;4997534;28;20030;-80
2021/03/14 03:45:19;;;;;;;21.38;3.00;;;8.70;71.30;;;;;;5012289;28;20092;-80
2021/03/14 03:47:46;;;;;;;16.17;3.60;;;8.70;71.10;;;;;;4996388;28;20034;-80
2021/03/14 03:50:14;;;;;;;22.65;2.60;;;8.60;71.70;;;;;;5013198;28;20069;-80
2021/03/14 03:52:42;;;;;;;19.15;3.28;;;8.60;70.20;;;;;;5012938;28;20038;-80
2021/03/14 03:55:10;;;;;;;13.15;2.58;;;8.60;70.80;;;;;;4998191;28;20089;-81
2021/03/14 03:57:37;;;;;;;19.08;2.90;;;8.60;70.60;;;;;;4996357;28;20092;-80
2021/03/14 04:00:06;;;;;;;21.73;3.00;;;8.60;70.90;;;;;;5012579;28;20050;-80
2021/03/14 04:02:32;;;;;;;19.35;2.95;;;8.60;71.40;;;;;;4997015;28;20046;-80
2021/03/14 04:04:59;;;;;;;22.92;3.45;;;8.60;71.10;;;;;;5012663;28;20042;-80
2021/03/14 04:07:25;;;;;;;21.85;2.53;;;8.60;72.00;;;;;;5012838;28;20092;-80
2021/03/14 04:09:52;;;;;;;17.20;2.05;;;8.60;71.60;;;;;;4996329;28;20046;-80
2021/03/14 04:12:18;;;;;;;14.13;2.30;;;8.60;71.70;;;;;;5013174;28;20057;-80
2021/03/14 04:14:45;;;;;;;20.55;2.70;;;8.50;72.10;;;;;;4996214;28;20422;-80
2021/03/14 04:17:11;;;;;;;17.48;2.42;;;8.50;71.60;;;;;;5012489;28;20057;-80
2021/03/14 04:19:39;;;;;;;15.30;2.28;;;8.50;71.60;;;;;;4996277;28;20483;-80
2021/03/14 04:22:07;;;;;;;20.77;3.03;;;8.60;72.10;;;;;;5013244;28;20096;-80
2021/03/14 04:24:37;;;;;;;19.73;2.38;;;8.70;72.90;;;;;;5012248;28;20503;-80
2021/03/14 04:27:05;;;;;;;19.38;2.75;;;8.70;74.90;;;;;;4997554;28;20471;-79
2021/03/14 04:29:32;;;;;;;18.27;2.95;;;8.60;74.20;;;;;;5012070;28;20042;-79
2021/03/14 04:31:59;;;;;;;15.48;2.85;;;8.50;76.20;;;;;;5012048;28;20038;-79
2021/03/14 04:34:26;;;;;;;18.33;2.65;;;8.40;76.50;;;;;;4996804;28;20042;-79
2021/03/14 04:36:52;;;;;;;14.02;2.00;;;8.30;76.80;;;;;;5012127;28;20034;-79
2021/03/14 04:39:19;;;;;;;21.90;2.50;;;8.20;74.40;;;;;;5011990;28;20134;-79
2021/03/14 04:41:46;;;;;;;12.93;2.03;;;8.20;74.10;;;;;;5011952;28;20061;-79
2021/03/14 04:44:14;;;;;;;13.10;1.60;;;8.20;72.80;;;;;;4995350;28;20030;-79
2021/03/14 04:46:42;;;;;;;19.83;2.50;;;8.10;71.90;;;;;;5011903;28;20494;-79
2021/03/14 04:49:07;;;;;;;13.82;1.80;;;8.10;71.90;;;;;;5011597;28;20038;-79
2021/03/14 04:51:37;;;;;;;18.05;2.00;;;8.10;71.60;;;;;;4995514;28;20045;-79
2021/03/14 04:54:04;;;;;;;15.82;1.98;;;8.00;71.40;;;;;;5011488;28;20034;-79
2021/03/14 04:56:31;;;;;;;13.45;2.70;;;8.00;72.40;;;;;;5012087;28;20038;-79
2021/03/14 04:58:58;;;;;;;11.52;2.63;;;8.00;72.70;;;;;;4996528;28;20058;-79
2021/03/14 05:01:26;;;;;;;15.27;2.45;;;8.00;73.60;;;;;;5011572;28;20049;-79
2021/03/14 05:03:55;;;;;;;18.40;2.28;;;8.00;73.70;;;;;;5011293;28;20061;-79
2021/03/14 05:06:22;;;;;;;22.08;2.70;;;8.10;74.20;;;;;;4996961;28;20104;-80
2021/03/14 05:08:49;;;;;;;16.52;2.65;;;8.00;75.10;;;;;;4995276;28;20104;-79
2021/03/14 05:11:20;;;;;;;20.17;2.38;;;8.10;75.20;;;;;;5011645;28;20068;-80
2021/03/14 05:13:47;;;;;;;16.55;2.28;;;8.10;75.70;;;;;;4996856;28;20065;-80
2021/03/14 05:16:14;;;;;;;17.15;2.72;;;8.20;75.60;;;;;;5011667;28;20041;-79
2021/03/14 05:18:42;;;;;;;14.18;1.83;;;8.20;76.60;;;;;;5011634;28;20035;-79
2021/03/14 05:21:09;;;;;;;5.88;0.85;;;8.30;73.70;;;;;;5011485;28;20045;-80
2021/03/14 05:23:36;;;;;;;13.10;1.13;;;8.10;75.10;;;;;;5011461;28;20042;-80
2021/03/14 05:26:08;;;;;;;14.85;1.40;;;7.90;77.30;;;;;;5012183;28;20041;-80
2021/03/14 05:28:35;;;;;;;4.20;0.50;;;7.70;75.80;;;;;;5011504;28;20042;-80
2021/03/14 05:31:02;;;;;;;5.32;0.68;;;7.70;72.00;;;;;;5011171;28;20071;-80
2021/03/14 05:33:28;;;;;;;4.25;0.65;;;7.70;70.40;;;;;;4995945;28;20141;-80
2021/03/14 05:35:53;;;;;;;5.57;1.45;;;7.70;69.00;;;;;;4995061;28;20542;-80
2021/03/14 05:38:19;;;;;;;4.50;0.88;;;7.70;72.70;;;;;;4995901;28;20030;-79
2021/03/14 05:40:47;;;;;;;4.25;0.68;;;7.70;74.70;;;;;;4994793;28;20048;-80
2021/03/14 05:43:13;;;;;;;9.00;1.10;;;7.60;75.40;;;;;;5010617;28;20049;-80
2021/03/14 05:45:39;;;;;;;8.43;0.80;;;7.50;77.20;;;;;;4995801;28;20444;-80
2021/03/14 05:48:05;;;;;;;9.13;0.70;;;7.50;77.60;;;;;;4994517;28;20105;-80
2021/03/14 05:50:31;;;;;;;6.40;0.80;;;7.40;78.70;;;;;;5010950;28;20092;-80
2021/03/14 05:53:00;;;;;;;5.97;0.90;;;7.30;79.20;;;;;;4994303;28;20034;-80
2021/03/14 05:55:26;;;;;;;5.35;0.80;;;7.20;80.40;;;;;;5010855;28;20446;-81
2021/03/14 05:57:54;;;;;;;8.00;1.58;;;7.10;81.10;;;;;;5011036;28;20069;-82
2021/03/14 06:00:26;;;;;;;7.53;1.55;;;7.10;81.30;;;;;;5010651;28;20038;-81
2021/03/14 06:02:58;;;;;;;13.90;1.20;;;7.10;81.90;;;;;;4994129;28;20082;-82
2021/03/14 06:05:29;;;;;;;8.90;1.15;;;7.10;82.50;;;;;;5011939;28;20030;-81
2021/03/14 06:07:56;;;;;;;9.05;1.35;;;7.00;82.80;;;;;;5010876;28;20049;-81
2021/03/14 06:10:22;;;;;;;14.45;1.48;;;7.00;82.70;;;;;;4994077;28;20042;-81
2021/03/14 06:12:48;;;;;;;11.75;1.17;;;7.00;83.30;;;;;;5010029;28;20049;-81
2021/03/14 06:15:14;;;;;;;12.98;1.23;;;7.00;83.80;;;;;;4993912;28;20038;-81
2021/03/14 06:17:40;;;;;;;12.98;1.52;;;6.90;84.10;;;;;;5010292;28;20479;-81
2021/03/14 06:20:08;;;;;;;10.65;1.40;;;6.90;83.80;;;;;;4994688;28;20350;-82
2021/03/14 06:22:37;;;;;;;17.45;1.80;;;7.00;83.70;;;;;;5010400;28;20078;-81
2021/03/14 06:25:03;;;;;;;9.10;1.10;;;7.00;83.80;;;;;;4993909;28;20042;-80
2021/03/14 06:28:01;;;;;;;11.95;1.20;;;7.10;82.40;;;;;;5010307;28;20129;-80
2021/03/14 06:30:31;;;;;;;9.77;1.40;;;7.20;82.30;;;;;;4994622;28;20050;-82
2021/03/14 06:33:03;;;;;;;16.05;2.35;;;7.20;81.90;;;;;;5010108;28;20026;-82
2021/03/14 06:35:44;;;;;;;14.80;2.22;;;7.30;82.10;;;;;;4994126;28;20034;-82
2021/03/14 06:38:28;;;;;;;17.15;2.00;;;7.40;80.50;;;;;;4993824;28;20034;-82
2021/03/14 06:41:03;;;;;;;15.07;1.83;;;7.60;79.20;;;;;;4993587;28;20049;-81
2021/03/14 06:43:40;;;;;;;11.15;1.83;;;7.90;77.80;;;;;;4993086;28;20274;-82
2021/03/14 06:46:26;;;;;;;21.15;2.17;;;8.10;77.80;;;;;;5009826;28;20042;-82
2021/03/14 06:49:11;;;;;;;16.77;2.35;;;8.40;77.20;;;;;;5009670;28;20431;-81
2021/03/14 06:51:38;;;;;;;17.60;1.85;;;8.50;78.60;;;;;;4995017;28;20117;-82
2021/03/14 06:54:38;;;;;;;16.17;2.58;;;8.40;79.80;;;;;;5009324;28;20093;-82
2021/03/14 06:57:17;;;;;;;14.10;2.15;;;8.30;81.40;;;;;;4982287;28;20060;-82
2021/03/14 06:59:51;;;;;;;17.88;2.00;;;8.10;82.20;;;;;;5010293;28;20042;-82
2021/03/14 07:02:50;;;;;;;;;;;8.10;83.00;;;;;;5009641;28;20038;-81
2021/03/14 07:05:24;;;;;;;16.40;1.60;;;8.00;83.20;;;;;;4994611;28;19924;-82
2021/03/14 07:07:49;;;;;;;13.88;1.73;;;8.00;83.70;;;;;;4997486;28;20455;-82
2021/03/14 07:10:19;;;;;;;14.85;1.60;;;8.00;84.00;;;;;;4997395;28;20078;-81
2021/03/14 07:12:47;;;;;;;13.48;1.70;;;8.00;84.00;;;;;;5013876;28;20039;-82
2021/03/14 07:15:21;;;;;;;11.23;2.05;;;8.10;83.10;;;;;;5013370;28;20085;-81
2021/03/14 07:17:51;;;;;;;;;;;8.10;81.90;;;;;;4998711;28;20038;-82
2021/03/14 07:20:18;;;;;;;16.77;1.98;;;8.20;81.10;;;;;;4997787;28;20326;-82
2021/03/14 07:23:05;;;;;;;15.40;1.88;;;8.30;80.60;;;;;;4996969;28;20133;-82
2021/03/14 07:25:33;;;;;;;17.23;2.20;;;8.40;79.80;;;;;;5021246;28;20038;-82
2021/03/14 07:27:59;;;;;;;18.10;2.30;;;8.50;79.10;;;;;;5024544;28;20073;-81
2021/03/14 07:30:28;;;;;;;17.88;2.50;;;8.60;78.50;;;;;;5016488;28;20041;-81
2021/03/14 07:32:55;;;;;;;18.25;2.40;;;8.70;77.30;;;;;;5017013;28;20030;-82
2021/03/14 07:35:22;;;;;;;18.92;2.85;;;8.80;76.60;;;;;;5016649;28;20053;-81
2021/03/14 07:37:50;;;;;;;22.30;3.08;;;8.90;75.90;;;;;;5016478;28;20037;-81
2021/03/14 07:40:18;;;;;;;18.88;3.42;;;8.90;76.00;;;;;;5016250;28;20038;-81
2021/03/14 07:42:45;;;;;;;21.63;3.17;;;9.00;73.30;;;;;;5016728;28;20037;-81
2021/03/14 07:45:16;;;;;;;26.50;3.22;;;9.10;72.60;;;;;;5016476;28;20038;-81
2021/03/14 07:47:44;;;;;;;21.05;2.80;;;9.10;72.10;;;;;;5015902;28;20128;-80
2021/03/14 07:50:14;;;;;;;20.45;3.53;;;9.20;70.10;;;;;;5015209;28;20034;-80
2021/03/14 07:52:41;;;;;;;19.45;3.83;;;9.30;70.90;;;;;;5015885;28;20034;-81
2021/03/14 07:55:13;;;;;;;16.85;2.53;;;9.30;70.10;;;;;;5016092;28;20509;-81
2021/03/14 07:57:44;;;;;;;21.52;3.20;;;9.30;69.80;;;;;;5015995;28;20471;-81
2021/03/14 08:00:34;;;;;;;21.30;3.28;;;9.40;69.40;;;;;;5016264;28;20578;-79
2021/03/14 08:03:05;;;;;;;21.95;3.30;;;9.40;69.30;;;;;;5017946;28;20053;-79
2021/03/14 08:05:40;;;;;;;18.25;2.88;;;9.50;68.60;;;;;;5016071;28;20045;-78
2021/03/14 08:08:32;;;;;;;24.95;3.50;;;9.50;68.90;;;;;;5017054;28;20046;-77
2021/03/14 08:10:59;;;;;;;20.42;2.95;;;9.60;69.80;;;;;;5016404;28;20038;-77
2021/03/14 08:13:31;;;;;;;20.65;2.97;;;9.60;68.90;;;;;;5015884;28;20045;-77
2021/03/14 08:16:03;;;;;;;18.30;2.97;;;9.70;69.20;;;;;;5016240;28;20034;-78
2021/03/14 08:18:39;;;;;;;22.38;3.25;;;9.70;69.00;;;;;;5015930;28;20513;-77
2021/03/14 08:21:26;;;;;;;21.48;2.45;;;9.80;69.20;;;;;;5018006;28;20041;-77
2021/03/14 08:23:57;;;;;;;18.63;3.30;;;9.80;69.60;;;;;;5015530;28;20037;-77
2021/03/14 08:26:32;;;;;;;17.45;3.05;;;9.90;69.20;;;;;;5016979;28;20053;-77
2021/03/14 08:29:10;;;;;;;23.30;2.90;;;10.10;68.20;;;;;;5015843;28;20041;-77
2021/03/14 08:31:46;;;;;;;18.05;3.40;;;10.20;66.90;;;;;;5014850;28;20037;-78
2021/03/14 08:34:29;;;;;;;17.15;2.50;;;10.20;66.70;;;;;;5015026;28;20038;-77
2021/03/14 08:36:56;;;;;;;23.00;3.10;;;10.30;67.30;;;;;;5015659;28;20038;-77
2021/03/14 08:39:30;;;;;;;21.13;3.35;;;10.30;66.80;;;;;;5015843;28;20058;-77
2021/03/14 08:42:02;;;;;;;20.20;2.97;;;10.30;66.50;;;;;;5016234;28;20077;-77
2021/03/14 08:44:42;;;;;;;24.67;4.45;;;10.40;67.00;;;;;;5015347;28;20062;-77
2021/03/14 08:47:11;;;;;;;21.60;3.10;;;10.60;66.20;;;;;;5015073;28;20029;-77
2021/03/14 08:49:59;;;;;;;20.45;2.50;;;10.80;65.20;;;;;;5016029;28;20041;-77
2021/03/14 08:52:24;;;;;;;16.92;2.85;;;10.90;64.90;;;;;;5016848;28;20030;-76
2021/03/14 08:54:54;;;;;;;22.45;2.97;;;10.80;65.30;;;;;;5014884;28;20368;-77
2021/03/14 08:57:20;;;;;;;23.23;3.25;;;10.90;65.50;;;;;;5015216;28;20124;-77
2021/03/14 08:59:51;;;;;;;21.63;2.88;;;10.90;64.60;;;;;;5016751;28;20069;-78
2021/03/14 09:02:25;;;;;;;19.70;3.00;;;10.90;64.00;;;;;;5016142;28;20088;-78
2021/03/14 09:04:52;;;;;;;15.73;2.92;;;10.90;64.10;;;;;;5015863;28;20058;-78
2021/03/14 09:07:19;;;;;;;15.65;3.03;;;10.90;63.50;;;;;;5014925;28;20041;-78
2021/03/14 09:09:45;;;;;;;20.45;2.60;;;11.10;64.50;;;;;;5015714;28;20128;-78
2021/03/14 09:12:15;;;;;;;22.08;3.15;;;11.20;63.90;;;;;;5000572;28;20508;-80
2021/03/14 09:14:46;;;;;;;17.60;2.67;;;11.30;64.10;;;;;;5017414;28;20124;-78
2021/03/14 09:17:17;;;;;;;21.42;3.80;;;11.40;63.60;;;;;;5016365;28;20036;-80
2021/03/14 09:19:43;;;;;;;22.77;2.95;;;11.40;63.60;;;;;;5014257;28;20096;-80
2021/03/14 09:22:12;;;;;;;23.13;4.28;;;11.40;64.30;;;;;;5014179;28;20045;-81
2021/03/14 09:24:41;;;;;;;14.98;3.10;;;11.40;63.80;;;;;;5014413;28;20132;-78
2021/03/14 09:27:13;;;;;;;24.13;3.90;;;11.50;63.90;;;;;;5014768;28;20048;-78
2021/03/14 09:29:44;;;;;;;22.33;2.88;;;11.50;64.60;;;;;;5014021;28;20417;-78
2021/03/14 09:32:41;;;;;;;24.80;3.85;;;11.40;64.40;;;;;;5009266;28;20046;-78
2021/03/14 09:35:19;;;;;;;20.20;3.88;;;11.60;64.70;;;;;;5010963;28;20102;-79
2021/03/14 09:37:49;;;;;;;19.10;3.13;;;11.70;63.60;;;;;;5021562;28;20045;-78
2021/03/14 09:40:22;;;;;;;30.48;3.92;;;11.60;63.50;;;;;;5021750;28;20188;-77
2021/03/14 09:42:51;;;;;;;20.17;2.60;;;11.70;63.80;;;;;;5009965;28;20041;-77
2021/03/14 09:45:20;;;;;;;21.98;3.15;;;11.60;63.10;;;;;;4994052;28;20073;-80
2021/03/14 09:48:12;;;;;;;19.50;3.22;;;11.50;62.20;;;;;;5007049;28;20044;-80
2021/03/14 09:50:49;;;;;;;20.80;3.40;;;11.70;61.70;;;;;;5014218;28;20514;-79
2021/03/14 09:53:16;;;;;;;17.08;3.30;;;11.90;61.30;;;;;;5013048;28;20045;-79
2021/03/14 09:55:48;;;;;;;27.40;3.00;;;11.90;60.30;;;;;;5014621;28;20483;-79
2021/03/14 09:58:16;;;;;;;15.65;3.25;;;11.80;60.20;;;;;;5014976;28;20034;-80
2021/03/14 10:00:45;;;;;;;20.33;3.33;;;12.00;60.70;;;;;;5015179;28;20045;-77
2021/03/14 10:03:15;;;;;;;18.73;2.58;;;11.90;60.60;;;;;;5016491;28;20577;-78
2021/03/14 10:05:45;;;;;;;20.65;3.30;;;12.10;59.00;;;;;;5013601;28;20132;-78
2021/03/14 10:08:16;;;;;;;23.88;3.67;;;12.30;58.70;;;;;;5015099;28;20082;-78
2021/03/14 10:10:43;;;;;;;18.15;3.00;;;12.40;58.90;;;;;;5013090;28;20054;-78
2021/03/14 10:13:09;;;;;;;19.58;3.30;;;12.30;58.50;;;;;;5012996;28;20061;-78
2021/03/14 10:15:38;;;;;;;20.80;3.35;;;12.30;58.60;;;;;;5013241;28;20044;-78
2021/03/14 10:18:05;;;;;;;18.55;2.75;;;12.50;58.30;;;;;;5013316;28;20029;-78
2021/03/14 10:20:31;;;;;;;18.88;3.58;;;12.70;58.70;;;;;;5013309;28;20069;-78
2021/03/14 10:23:06;;;;;;;15.65;2.92;;;13.00;58.90;;;;;;5013130;28;20038;-77
2021/03/14 10:25:37;;;;;;;20.10;3.22;;;13.20;56.20;;;;;;5013352;28;20042;-77
2021/03/14 10:28:08;;;;;;;18.55;2.80;;;13.10;56.30;;;;;;5013067;28;20038;-78
2021/03/14 10:30:34;;;;;;;18.52;3.25;;;12.90;56.80;;;;;;5014427;28;20048;-78
2021/03/14 10:33:00;;;;;;;17.42;3.78;;;13.10;57.50;;;;;;5012645;28;20038;-78
2021/03/14 10:35:27;;;;;;;16.98;3.45;;;13.20;55.90;;;;;;5012699;28;20521;-77
2021/03/14 10:37:53;;;;;;;17.58;3.63;;;13.10;55.30;;;;;;5012954;28;20029;-77
2021/03/14 10:40:25;;;;;;;11.48;2.35;;;13.10;56.30;;;;;;5015796;28;20038;-77
2021/03/14 10:42:53;;;;;;;19.85;3.53;;;12.90;55.50;;;;;;5018146;28;20041;-84
2021/03/14 10:45:23;;;;;;;18.92;2.80;;;13.00;56.20;;;;;;5017258;28;20038;-79
2021/03/14 10:48:06;;;;;;;16.05;3.03;;;13.30;55.50;;;;;;5019540;28;20041;-78
2021/03/14 10:50:34;;;;;;;25.23;2.92;;;13.40;55.10;;;;;;5032872;28;20048;-79
2021/03/14 10:53:16;;;;;;;15.90;2.55;;;13.30;55.40;;;;;;5016440;28;20030;-87
2021/03/14 10:55:44;;;;;;;19.23;2.85;;;13.20;55.60;;;;;;5016950;28;20041;-81
2021/03/14 10:58:16;;;;;;;24.80;4.22;;;13.20;56.40;;;;;;5017244;28;20034;-80
2021/03/14 11:00:47;;;;;;;18.38;3.38;;;13.30;55.90;;;;;;5016441;28;20041;-81
2021/03/14 11:03:38;;;;;;;18.65;3.22;;;13.00;56.90;;;;;;5017394;28;20041;-83
2021/03/14 11:06:28;;;;;;;17.58;2.70;;;13.20;57.60;;;;;;5016193;28;20521;-82
2021/03/14 11:08:55;;;;;;;14.13;2.95;;;13.30;57.20;;;;;;5016148;28;20069;-79
2021/03/14 11:11:26;;;;;;;20.40;3.33;;;13.30;57.30;;;;;;5017406;28;20038;-86
2021/03/14 11:13:54;;;;;;;16.67;2.70;;;13.40;57.60;;;;;;5000373;28;20037;-79
2021/03/14 11:16:25;;;;;;;17.90;3.05;;;13.70;56.40;;;;;;5016569;28;20034;-78
2021/03/14 11:19:00;;;;;;;23.80;2.70;;;13.80;56.00;;;;;;5000632;28;20182;-78
2021/03/14 11:21:40;;;;;;;17.38;2.60;;;13.80;55.30;;;;;;4998594;28;20129;-79
2021/03/14 11:24:09;;;;;;;17.45;2.75;;;13.90;55.10;;;;;;4996038;28;20049;-78
2021/03/14 11:29:57;;;;;;;18.00;2.55;;;13.60;55.50;;;;;;4997130;28;20104;-78
2021/03/14 11:32:26;;;;;;;16.83;2.85;;;13.30;56.20;;;;;;4995410;28;20046;-79
2021/03/14 11:34:52;;;;;;;14.60;2.90;;;13.20;56.60;;;;;;4996258;28;20034;-78
2021/03/14 11:40:23;;;;;;;13.83;2.70;;;13.30;56.30;;;;;;4997085;28;20057;-77
2021/03/14 11:42:49;;;;;;;16.00;2.97;;;13.30;56.00;;;;;;4995686;28;20041;-78
2021/03/14 11:45:15;;;;;;;15.75;2.33;;;13.30;56.50;;;;;;4996152;28;20136;-79
2021/03/14 11:47:41;;;;;;;18.23;2.50;;;13.50;56.20;;;;;;4996204;28;20128;-79
2021/03/14 11:50:08;;;;;;;16.58;2.35;;;13.50;55.10;;;;;;4995613;28;20111;-80
2021/03/14 11:52:34;;;;;;;22.25;3.20;;;13.40;55.50;;;;;;4994836;28;20026;-80
2021/03/14 11:55:02;;;;;;;15.90;2.92;;;13.40;56.70;;;;;;4996007;28;20479;-79
2021/03/14 11:57:28;;;;;;;10.90;2.22;;;13.30;57.60;;;;;;4996152;28;20037;-79
2021/03/14 11:59:56;;;;;;;17.38;2.75;;;13.10;58.60;;;;;;4996111;28;20495;-79
2021/03/14 12:02:23;;;;;;;15.52;3.05;;;13.20;59.00;;;;;;4996795;28;20121;-79
2021/03/14 12:04:49;;;;;;;14.30;2.28;;;13.50;59.70;;;;;;4995027;28;20192;-79
2021/03/14 12:07:15;;;;;;;18.70;2.70;;;13.90;57.00;;;;;;4995537;28;20213;-78
2021/03/14 12:09:41;;;;;;;20.38;3.13;;;13.80;57.00;;;;;;4995354;28;20050;-79
2021/03/14 12:12:08;;;;;;;18.33;2.67;;;13.90;57.50;;;;;;4995192;28;20058;-79
2021/03/14 12:14:34;;;;;;;17.55;3.05;;;13.80;56.20;;;;;;4995383;28;20081;-79
2021/03/14 12:17:00;;;;;;;19.85;2.22;;;13.50;56.20;;;;;;4995541;28;20395;-79
2021/03/14 12:19:26;;;;;;;18.85;2.53;;;13.20;56.50;;;;;;4996294;28;20042;-79
2021/03/14 12:21:55;;;;;;;17.58;3.75;;;13.20;55.70;;;;;;4998417;28;20081;-79
2021/03/14 12:24:21;;;;;;;26.27;3.03;;;13.20;57.30;;;;;;5014741;28;20100;-79
2021/03/14 12:26:50;;;;;;;16.35;3.33;;;13.20;58.40;;;;;;5014671;28;20037;-79
2021/03/14 12:29:16;;;;;;;28.80;3.88;;;13.20;57.80;;;;;;5014586;28;20042;-79
2021/03/14 12:31:42;;;;;;;20.90;2.88;;;13.10;58.60;;;;;;5014727;28;20095;-79
2021/03/14 12:34:08;;;;;;;20.42;3.00;;;13.00;59.30;;;;;;5014444;28;20520;-79
2021/03/14 12:36:34;;;;;;;22.33;3.58;;;13.10;58.60;;;;;;5014859;28;20040;-79
2021/03/14 12:39:00;;;;;;;18.13;2.88;;;13.30;58.40;;;;;;5013894;28;20038;-79
2021/03/14 12:41:26;;;;;;;22.40;3.47;;;13.50;55.50;;;;;;5013232;28;20088;-79
2021/03/14 12:43:56;;;;;;;19.67;4.05;;;13.50;56.70;;;;;;5014420;28;20383;-79
2021/03/14 12:46:22;;;;;;;15.35;2.90;;;13.50;56.70;;;;;;5014206;28;20049;-80
2021/03/14 12:48:48;;;;;;;18.95;2.92;;;13.50;55.00;;;;;;5016389;28;20041;-80
2021/03/14 12:51:14;;;;;;;19.60;3.08;;;13.50;56.00;;;;;;5016651;28;20049;-79
2021/03/14 12:53:40;;;;;;;12.55;2.40;;;13.30;54.40;;;;;;5014629;28;20038;-78
2021/03/14 12:56:06;;;;;;;14.45;2.45;;;13.50;55.20;;;;;;5015029;28;20038;-79
2021/03/14 12:58:32;;;;;;;16.42;3.22;;;13.50;55.10;;;;;;5014832;28;20089;-79
2021/03/14 13:00:58;;;;;;;20.33;3.60;;;13.60;55.30;;;;;;5014959;28;20129;-79
2021/03/14 13:03:24;;;;;;;16.30;2.58;;;13.60;55.10;;;;;;5013194;28;20065;-79
2021/03/14 13:05:49;;;;;;;21.70;3.20;;;13.50;56.50;;;;;;5016599;28;20037;-79